Time;durP1;ratioP1;P1;durP2;ratioP2;P2;SDS_P1;SDS_P2;PMS_P1;PMS_P2;Temp;Humidity;BMP_temperature;BMP_pressure;BME280_temperature;BME280_humidity;BME280_pressure;Samples;Min_cycle;Max_cycle;Signal;HPM_P1;HPM_P2
2023/07/22 00:01:05;;;;;;;5.73;2.70;;;;;;;;;;5111978;28;20031;-61
2023/07/22 00:03:30;;;;;;;5.00;2.47;;;;;;;;;;5110810;28;21060;-61
2023/07/22 00:06:02;;;;;;;5.37;2.33;;;;;;;;;;5131006;28;20015;-61
2023/07/22 00:08:27;;;;;;;5.38;2.60;;;;;;;;;;5131400;27;20432;-62
2023/07/22 00:10:52;;;;;;;5.03;2.60;;;;;;;;;;5131467;28;20015;-63
2023/07/22 00:13:17;;;;;;;7.60;2.80;;;;;;;;;;5130895;27;20019;-61
2023/07/22 00:15:42;;;;;;;5.67;2.60;;;;;;;;;;5131659;28;20020;-60
2023/07/22 00:18:08;;;;;;;4.70;2.33;;;;;;;;;;5131691;28;20371;-61
2023/07/22 00:20:33;;;;;;;5.23;2.20;;;;;;;;;;5133700;27;20015;-61
2023/07/22 00:22:59;;;;;;;4.90;2.00;;;;;;;;;;5135003;27;20489;-63
2023/07/22 00:25:24;;;;;;;5.13;2.50;;;;;;;;;;5135775;27;20018;-63
2023/07/22 00:27:49;;;;;;;6.33;2.70;;;;;;;;;;5115373;27;20111;-61
2023/07/22 00:30:14;;;;;;;5.37;2.57;;;;;;;;;;5115201;28;20494;-63
2023/07/22 00:32:40;;;;;;;5.93;2.20;;;;;;;;;;5114309;27;20090;-63
2023/07/22 00:35:06;;;;;;;5.45;2.70;;;;;;;;;;5114875;28;20190;-62
2023/07/22 00:37:32;;;;;;;6.45;2.50;;;;;;;;;;5114323;28;20102;-62
2023/07/22 00:39:57;;;;;;;4.85;2.47;;;;;;;;;;5114722;28;20551;-60
2023/07/22 00:42:22;;;;;;;5.38;2.60;;;;;;;;;;5114429;28;20019;-62
2023/07/22 00:44:47;;;;;;;8.17;2.63;;;;;;;;;;5114344;28;20483;-60
2023/07/22 00:47:12;;;;;;;6.37;2.40;;;;;;;;;;5114758;28;20022;-61
2023/07/22 00:49:38;;;;;;;5.83;2.60;;;;;;;;;;5114473;28;20028;-61
2023/07/22 00:52:04;;;;;;;7.60;2.63;;;;;;;;;;5114250;28;20015;-60
2023/07/22 00:54:30;;;;;;;5.72;2.72;;;;;;;;;;5113906;28;20373;-62
2023/07/22 00:56:56;;;;;;;4.78;2.30;;;;;;;;;;5114748;28;20023;-62
2023/07/22 00:59:21;;;;;;;4.88;2.20;;;;;;;;;;5114975;28;20429;-62
2023/07/22 01:01:46;;;;;;;6.60;2.40;;;;;;;;;;5114562;28;20102;-62
2023/07/22 01:04:14;;;;;;;6.63;2.50;;;;;;;;;;5123220;27;20857;-61
2023/07/22 01:06:39;;;;;;;4.82;2.10;;;;;;;;;;5134442;27;20011;-61
2023/07/22 01:09:07;;;;;;;5.80;2.60;;;;;;;;;;5134606;27;20079;-62
2023/07/22 01:11:32;;;;;;;4.88;2.30;;;;;;;;;;5134644;27;20015;-62
2023/07/22 01:13:59;;;;;;;5.35;2.40;;;;;;;;;;5133888;27;20046;-61
2023/07/22 01:16:25;;;;;;;4.70;2.33;;;;;;;;;;5134729;27;20033;-62
2023/07/22 01:18:51;;;;;;;5.35;2.40;;;;;;;;;;5134469;27;20466;-61
2023/07/22 01:21:17;;;;;;;6.40;2.65;;;;;;;;;;5134557;27;20098;-63
2023/07/22 01:23:42;;;;;;;6.07;2.25;;;;;;;;;;5133932;27;20021;-61
2023/07/22 01:26:07;;;;;;;6.10;2.15;;;;;;;;;;5134367;27;20378;-61
2023/07/22 01:28:35;;;;;;;5.47;2.47;;;;;;;;;;5133975;27;20055;-61
2023/07/22 01:31:00;;;;;;;5.07;2.40;;;;;;;;;;5133894;27;20075;-63
2023/07/22 01:33:27;;;;;;;5.20;2.30;;;;;;;;;;5117373;27;20606;-62
2023/07/22 01:35:52;;;;;;;4.43;1.90;;;;;;;;;;5113855;28;20019;-62
2023/07/22 01:38:17;;;;;;;4.40;2.17;;;;;;;;;;5113477;28;20024;-62
2023/07/22 01:40:42;;;;;;;4.57;2.40;;;;;;;;;;5113474;28;20487;-63
2023/07/22 01:43:08;;;;;;;5.30;2.43;;;;;;;;;;5113023;28;20031;-62
2023/07/22 01:45:33;;;;;;;5.13;2.00;;;;;;;;;;5113421;28;20122;-63
2023/07/22 01:47:58;;;;;;;7.35;2.67;;;;;;;;;;5111998;28;20048;-62
2023/07/22 01:50:23;;;;;;;5.25;2.42;;;;;;;;;;5113295;28;20411;-62
2023/07/22 01:52:48;;;;;;;5.47;2.43;;;;;;;;;;5112840;28;20095;-62
2023/07/22 01:55:14;;;;;;;5.23;2.30;;;;;;;;;;5113213;27;20501;-63
2023/07/22 01:57:42;;;;;;;5.60;2.60;;;;;;;;;;5113225;28;20097;-62
2023/07/22 02:00:10;;;;;;;4.10;2.20;;;;;;;;;;5113286;28;20050;-63
2023/07/22 02:02:36;;;;;;;6.38;2.60;;;;;;;;;;5114579;27;20022;-60
2023/07/22 02:05:01;;;;;;;6.30;2.87;;;;;;;;;;5133993;27;20113;-61
2023/07/22 02:07:28;;;;;;;7.18;2.78;;;;;;;;;;5133924;27;20030;-61
2023/07/22 02:09:54;;;;;;;5.90;2.42;;;;;;;;;;5133779;27;20064;-61
2023/07/22 02:12:19;;;;;;;5.13;2.42;;;;;;;;;;5133368;27;20019;-61
2023/07/22 02:14:44;;;;;;;5.10;2.40;;;;;;;;;;5133272;27;20506;-61
2023/07/22 02:17:10;;;;;;;6.27;2.67;;;;;;;;;;5133679;27;20079;-62
2023/07/22 02:19:36;;;;;;;9.18;3.00;;;;;;;;;;5133553;27;20023;-62
2023/07/22 02:22:02;;;;;;;6.57;2.97;;;;;;;;;;5133774;27;20489;-62
2023/07/22 02:24:27;;;;;;;5.95;2.80;;;;;;;;;;5135005;27;20015;-62
2023/07/22 02:26:53;;;;;;;8.33;3.03;;;;;;;;;;5134960;27;20053;-62
2023/07/22 02:29:19;;;;;;;6.83;3.03;;;;;;;;;;5133230;27;20115;-62
2023/07/22 02:31:46;;;;;;;;;;;;;;;;;;5133702;27;20019;-61
2023/07/22 02:34:11;;;;;;;7.53;2.58;;;;;;;;;;5132613;27;20380;-59
2023/07/22 02:36:36;;;;;;;7.47;2.70;;;;;;;;;;5133167;27;20115;-62
2023/07/22 02:39:02;;;;;;;5.55;2.83;;;;;;;;;;5130972;27;20027;-63
2023/07/22 02:41:27;;;;;;;6.05;3.30;;;;;;;;;;5132945;27;20019;-62
2023/07/22 02:43:53;;;;;;;5.00;2.80;;;;;;;;;;5131855;27;20035;-63
2023/07/22 02:46:18;;;;;;;5.82;2.72;;;;;;;;;;5132651;27;20015;-63
2023/07/22 02:48:43;;;;;;;5.80;2.87;;;;;;;;;;5132708;27;20470;-61
2023/07/22 02:51:09;;;;;;;9.60;3.20;;;;;;;;;;5132763;27;20031;-62
2023/07/22 02:53:36;;;;;;;6.35;3.00;;;;;;;;;;5132106;27;20027;-62
2023/07/22 02:56:01;;;;;;;6.68;2.90;;;;;;;;;;5132742;27;20027;-61
2023/07/22 02:58:27;;;;;;;6.30;3.03;;;;;;;;;;5133339;27;20023;-63
2023/07/22 03:00:52;;;;;;;8.43;3.60;;;;;;;;;;5132921;27;20404;-61
2023/07/22 03:03:18;;;;;;;7.67;3.40;;;;;;;;;;5131781;27;20517;-62
2023/07/22 03:05:44;;;;;;;6.13;3.05;;;;;;;;;;5132601;27;20020;-62
2023/07/22 03:08:09;;;;;;;6.80;3.40;;;;;;;;;;5132602;27;20043;-62
2023/07/22 03:10:34;;;;;;;6.80;3.10;;;;;;;;;;5119656;27;20020;-61
2023/07/22 03:12:59;;;;;;;5.18;3.10;;;;;;;;;;5111212;28;20387;-61
2023/07/22 03:15:28;;;;;;;8.27;3.13;;;;;;;;;;5111871;28;20032;-61
2023/07/22 03:17:53;;;;;;;6.25;3.30;;;;;;;;;;5111433;28;20031;-62
2023/07/22 03:20:19;;;;;;;6.13;3.17;;;;;;;;;;5111678;28;20012;-60
2023/07/22 03:22:45;;;;;;;6.80;3.22;;;;;;;;;;5111023;28;20019;-60
2023/07/22 03:25:10;;;;;;;7.93;3.20;;;;;;;;;;5111614;28;20470;-62
2023/07/22 03:27:36;;;;;;;5.82;2.92;;;;;;;;;;5111360;28;20026;-62
2023/07/22 03:30:02;;;;;;;10.02;3.38;;;;;;;;;;5111331;28;20356;-62
2023/07/22 03:32:27;;;;;;;7.45;3.58;;;;;;;;;;5110155;28;20022;-62
2023/07/22 03:34:52;;;;;;;9.07;3.63;;;;;;;;;;5111110;28;20081;-62
2023/07/22 03:37:19;;;;;;;7.80;3.33;;;;;;;;;;5111452;28;20012;-62
2023/07/22 03:39:44;;;;;;;8.57;3.20;;;;;;;;;;5111305;28;20034;-62
2023/07/22 03:42:09;;;;;;;5.85;3.10;;;;;;;;;;5111506;28;20094;-62
2023/07/22 03:44:34;;;;;;;5.73;3.53;;;;;;;;;;5110927;28;20031;-62
2023/07/22 03:47:00;;;;;;;6.55;3.47;;;;;;;;;;5111140;28;20526;-62
2023/07/22 03:49:25;;;;;;;7.73;3.30;;;;;;;;;;5111136;28;20038;-60
2023/07/22 03:51:50;;;;;;;6.47;3.47;;;;;;;;;;5111039;28;20963;-61
2023/07/22 03:54:15;;;;;;;5.83;3.03;;;;;;;;;;5110552;28;20012;-62
2023/07/22 03:56:41;;;;;;;7.20;3.07;;;;;;;;;;5111074;28;20039;-60
2023/07/22 03:59:06;;;;;;;6.25;3.47;;;;;;;;;;5111117;28;20024;-62
2023/07/22 04:01:31;;;;;;;8.07;3.42;;;;;;;;;;5112627;28;20371;-63
2023/07/22 04:03:56;;;;;;;7.93;3.80;;;;;;;;;;5130659;28;20122;-61
2023/07/22 04:06:21;;;;;;;8.73;3.67;;;;;;;;;;5131425;28;20092;-61
2023/07/22 04:08:46;;;;;;;5.10;2.88;;;;;;;;;;5131606;28;20077;-62
2023/07/22 04:11:13;;;;;;;6.27;3.20;;;;;;;;;;5131551;28;20395;-62
2023/07/22 04:13:39;;;;;;;7.07;3.28;;;;;;;;;;5129746;27;20026;-59
2023/07/22 04:16:04;;;;;;;7.35;3.03;;;;;;;;;;5121917;27;20039;-63
2023/07/22 04:18:34;;;;;;;7.50;2.83;;;;;;;;;;5110966;28;20054;-61
2023/07/22 04:20:59;;;;;;;7.85;2.80;;;;;;;;;;5111485;28;20020;-62
2023/07/22 04:23:25;;;;;;;6.07;3.03;;;;;;;;;;5110424;28;20540;-62
2023/07/22 04:25:50;;;;;;;4.60;2.70;;;;;;;;;;5111120;28;20125;-62
2023/07/22 04:28:16;;;;;;;8.20;3.10;;;;;;;;;;5112304;28;20032;-61
2023/07/22 04:30:41;;;;;;;5.78;2.95;;;;;;;;;;5112390;28;20028;-61
2023/07/22 04:33:09;;;;;;;6.67;2.80;;;;;;;;;;5110425;28;20643;-61
2023/07/22 04:35:37;;;;;;;6.85;2.90;;;;;;;;;;5110926;28;20020;-61
2023/07/22 04:38:03;;;;;;;6.70;2.80;;;;;;;;;;5109617;28;20379;-61
2023/07/22 04:40:28;;;;;;;7.18;3.55;;;;;;;;;;5110923;28;20023;-62
2023/07/22 04:42:53;;;;;;;7.97;3.33;;;;;;;;;;5110309;28;20019;-61
2023/07/22 04:45:18;;;;;;;7.07;3.10;;;;;;;;;;5113947;28;20011;-62
2023/07/22 04:47:46;;;;;;;7.35;3.05;;;;;;;;;;5111994;28;20133;-60
2023/07/22 04:50:12;;;;;;;5.97;3.20;;;;;;;;;;5113803;28;20012;-61
2023/07/22 04:52:37;;;;;;;5.65;3.30;;;;;;;;;;5117971;28;20031;-59
2023/07/22 04:55:08;;;;;;;8.43;3.27;;;;;;;;;;5119096;28;20020;-61
2023/07/22 04:57:37;;;;;;;7.22;2.90;;;;;;;;;;5111523;28;20073;-62
2023/07/22 05:00:07;;;;;;;7.22;3.25;;;;;;;;;;5110556;28;20023;-63
2023/07/22 05:02:33;;;;;;;6.90;2.47;;;;;;;;;;5123480;28;20116;-62
2023/07/22 05:04:58;;;;;;;5.07;2.60;;;;;;;;;;5130647;27;20032;-61
2023/07/22 05:07:23;;;;;;;4.63;2.53;;;;;;;;;;5134150;27;20023;-62
2023/07/22 05:09:49;;;;;;;7.10;3.20;;;;;;;;;;5134848;27;20102;-61
2023/07/22 05:12:14;;;;;;;6.00;2.53;;;;;;;;;;5134807;27;20378;-61
2023/07/22 05:14:39;;;;;;;6.50;2.40;;;;;;;;;;5134289;27;20386;-62
2023/07/22 05:17:04;;;;;;;6.07;3.00;;;;;;;;;;5134449;27;20067;-63
2023/07/22 05:19:30;;;;;;;5.83;2.80;;;;;;;;;;5134751;27;20073;-63
2023/07/22 05:21:55;;;;;;;7.27;2.67;;;;;;;;;;5127159;27;20402;-62
2023/07/22 05:24:21;;;;;;;6.77;2.57;;;;;;;;;;5113487;27;20031;-62
2023/07/22 05:26:46;;;;;;;5.07;3.00;;;;;;;;;;5114148;28;20084;-62
2023/07/22 05:29:11;;;;;;;6.20;3.23;;;;;;;;;;5113559;28;20027;-62
2023/07/22 05:31:36;;;;;;;6.03;3.10;;;;;;;;;;5113800;28;20019;-60
2023/07/22 05:34:02;;;;;;;6.15;3.08;;;;;;;;;;5113064;28;20020;-63
2023/07/22 05:36:27;;;;;;;6.85;3.10;;;;;;;;;;5114035;28;20080;-63
2023/07/22 05:38:52;;;;;;;6.90;3.28;;;;;;;;;;5113542;28;20030;-61
2023/07/22 05:41:17;;;;;;;10.40;3.05;;;;;;;;;;5113525;28;20084;-62
2023/07/22 05:43:43;;;;;;;5.93;2.88;;;;;;;;;;5113170;28;20044;-60
2023/07/22 05:46:08;;;;;;;6.47;3.45;;;;;;;;;;5113603;28;20024;-61
2023/07/22 05:48:33;;;;;;;9.25;3.13;;;;;;;;;;5113071;28;20075;-61
2023/07/22 05:50:58;;;;;;;7.37;2.97;;;;;;;;;;5113591;28;20019;-62
2023/07/22 05:53:23;;;;;;;6.17;2.83;;;;;;;;;;5112864;28;20022;-62
2023/07/22 05:55:48;;;;;;;6.00;2.90;;;;;;;;;;5113448;28;20030;-64
2023/07/22 05:58:17;;;;;;;6.32;2.80;;;;;;;;;;5113313;28;20026;-63
2023/07/22 06:00:43;;;;;;;7.13;2.83;;;;;;;;;;5112972;27;20027;-60
2023/07/22 06:03:08;;;;;;;8.70;3.40;;;;;;;;;;5112468;28;20430;-62
2023/07/22 06:05:34;;;;;;;9.18;3.50;;;;;;;;;;5113463;28;20100;-62
2023/07/22 06:07:59;;;;;;;7.87;3.50;;;;;;;;;;5112838;28;20077;-61
2023/07/22 06:10:24;;;;;;;5.73;2.97;;;;;;;;;;5112983;28;20024;-63
2023/07/22 06:12:49;;;;;;;6.27;3.17;;;;;;;;;;5112525;28;20073;-62
2023/07/22 06:15:14;;;;;;;9.67;4.00;;;;;;;;;;5113129;28;20486;-62
2023/07/22 06:17:40;;;;;;;8.43;3.43;;;;;;;;;;5111740;28;20488;-61
2023/07/22 06:20:05;;;;;;;12.00;3.93;;;;;;;;;;5112970;28;20072;-63
2023/07/22 06:22:30;;;;;;;7.80;3.67;;;;;;;;;;5112848;28;20632;-63
2023/07/22 06:24:56;;;;;;;6.15;3.20;;;;;;;;;;5111895;28;20157;-63
2023/07/22 06:27:21;;;;;;;5.70;3.33;;;;;;;;;;5112727;28;20023;-62
2023/07/22 06:29:47;;;;;;;7.18;3.47;;;;;;;;;;5112682;28;20498;-63
2023/07/22 06:32:12;;;;;;;7.20;3.42;;;;;;;;;;5110693;28;20089;-62
2023/07/22 06:34:37;;;;;;;7.97;3.20;;;;;;;;;;5111182;28;20026;-62
2023/07/22 06:37:02;;;;;;;7.33;3.83;;;;;;;;;;5112803;28;20020;-63
2023/07/22 06:39:28;;;;;;;7.95;3.58;;;;;;;;;;5112758;28;20515;-63
2023/07/22 06:41:53;;;;;;;8.13;3.67;;;;;;;;;;5112604;28;20054;-62
2023/07/22 06:44:18;;;;;;;6.43;3.43;;;;;;;;;;5112044;28;20016;-62
2023/07/22 06:46:44;;;;;;;7.25;3.45;;;;;;;;;;5112572;28;20023;-61
2023/07/22 06:49:09;;;;;;;8.75;3.67;;;;;;;;;;5112412;28;20039;-62
2023/07/22 06:51:34;;;;;;;7.87;3.73;;;;;;;;;;5112328;28;20020;-62
2023/07/22 06:54:00;;;;;;;11.35;3.88;;;;;;;;;;5111898;27;20023;-61
2023/07/22 06:56:26;;;;;;;5.73;3.30;;;;;;;;;;5112259;27;20023;-63
2023/07/22 06:58:51;;;;;;;7.05;3.42;;;;;;;;;;5112179;28;20054;-63
2023/07/22 07:01:16;;;;;;;8.53;3.70;;;;;;;;;;5111666;27;20479;-62
2023/07/22 07:03:41;;;;;;;7.03;3.03;;;;;;;;;;5111584;28;20092;-62
2023/07/22 07:06:06;;;;;;;5.63;3.30;;;;;;;;;;5112187;28;20016;-62
2023/07/22 07:08:31;;;;;;;7.88;3.80;;;;;;;;;;5111944;28;20027;-62
2023/07/22 07:10:58;;;;;;;8.40;3.60;;;;;;;;;;5112707;28;20087;-62
2023/07/22 07:13:24;;;;;;;8.90;3.25;;;;;;;;;;5112361;28;20019;-62
2023/07/22 07:15:49;;;;;;;9.40;3.43;;;;;;;;;;5113331;28;20386;-62
2023/07/22 07:18:14;;;;;;;8.97;3.67;;;;;;;;;;5115343;28;20494;-61
2023/07/22 07:20:40;;;;;;;8.75;4.00;;;;;;;;;;5117262;28;20479;-62
2023/07/22 07:23:05;;;;;;;8.15;3.70;;;;;;;;;;5117012;28;20467;-62
2023/07/22 07:25:30;;;;;;;6.75;3.25;;;;;;;;;;5118455;28;20042;-61
2023/07/22 07:27:55;;;;;;;6.73;3.30;;;;;;;;;;5113725;27;20031;-62
2023/07/22 07:30:21;;;;;;;5.30;3.07;;;;;;;;;;5112239;28;20027;-62
2023/07/22 07:32:46;;;;;;;6.05;3.58;;;;;;;;;;5110865;28;20019;-62
2023/07/22 07:35:11;;;;;;;7.75;3.40;;;;;;;;;;5111603;28;20616;-62
2023/07/22 07:37:36;;;;;;;7.35;3.45;;;;;;;;;;5111596;28;20022;-62
2023/07/22 07:40:03;;;;;;;6.40;3.50;;;;;;;;;;5111357;28;20051;-62
2023/07/22 07:42:28;;;;;;;7.75;3.40;;;;;;;;;;5111000;28;20015;-62
2023/07/22 07:44:54;;;;;;;6.70;3.30;;;;;;;;;;5111057;28;20026;-62
2023/07/22 07:47:19;;;;;;;6.88;3.38;;;;;;;;;;5111229;28;20019;-61
2023/07/22 07:49:45;;;;;;;6.70;3.60;;;;;;;;;;5110997;28;20031;-62
2023/07/22 07:52:10;;;;;;;7.32;3.42;;;;;;;;;;5111151;28;20035;-61
2023/07/22 07:54:35;;;;;;;8.27;3.50;;;;;;;;;;5110754;28;20020;-62
2023/07/22 07:57:00;;;;;;;8.75;3.13;;;;;;;;;;5111225;28;20387;-63
2023/07/22 07:59:25;;;;;;;10.90;3.27;;;;;;;;;;5111190;28;20028;-62
2023/07/22 08:01:51;;;;;;;7.55;3.55;;;;;;;;;;5126564;27;20470;-61
2023/07/22 08:04:17;;;;;;;7.73;3.20;;;;;;;;;;5130898;28;20034;-62
2023/07/22 08:06:42;;;;;;;5.18;3.05;;;;;;;;;;5126374;27;20106;-63
2023/07/22 08:09:10;;;;;;;6.00;3.37;;;;;;;;;;5110937;28;20110;-63
2023/07/22 08:11:35;;;;;;;9.77;3.40;;;;;;;;;;5111129;28;20020;-62
2023/07/22 08:14:01;;;;;;;6.88;3.15;;;;;;;;;;5110478;28;20023;-62
2023/07/22 08:16:26;;;;;;;5.80;3.03;;;;;;;;;;5111147;28;20027;-62
2023/07/22 08:18:51;;;;;;;7.03;3.30;;;;;;;;;;5111206;28;20019;-62
2023/07/22 08:21:17;;;;;;;7.68;3.53;;;;;;;;;;5111295;28;20016;-62
2023/07/22 08:23:45;;;;;;;7.67;3.13;;;;;;;;;;5110364;28;20673;-63
2023/07/22 08:26:10;;;;;;;7.85;2.90;;;;;;;;;;5110975;28;20490;-64
2023/07/22 08:28:36;;;;;;;6.63;3.10;;;;;;;;;;5110657;28;20027;-61
2023/07/22 08:31:01;;;;;;;6.17;3.40;;;;;;;;;;5110718;28;20035;-61
2023/07/22 08:33:26;;;;;;;6.20;2.97;;;;;;;;;;5110490;28;20020;-61
2023/07/22 08:35:52;;;;;;;8.18;3.58;;;;;;;;;;5111376;28;20016;-61
2023/07/22 08:38:17;;;;;;;5.80;3.15;;;;;;;;;;5110807;28;20554;-61
2023/07/22 08:40:42;;;;;;;5.73;2.80;;;;;;;;;;5111480;28;20422;-62
2023/07/22 08:43:08;;;;;;;7.00;3.60;;;;;;;;;;5114272;28;20029;-60
2023/07/22 08:45:36;;;;;;;;;;;;;;;;;;5115289;28;20019;-62
2023/07/22 08:48:07;;;;;;;6.00;2.80;;;;;;;;;;5114709;28;19916;-61
2023/07/22 08:50:34;;;;;;;7.57;2.90;;;;;;;;;;5114481;28;20012;-61
2023/07/22 08:53:00;;;;;;;6.85;2.90;;;;;;;;;;5114171;28;20042;-60
2023/07/22 08:55:26;;;;;;;6.07;3.25;;;;;;;;;;5114169;28;20110;-62
2023/07/22 08:57:51;;;;;;;7.05;3.53;;;;;;;;;;5114607;28;20039;-62
2023/07/22 09:00:16;;;;;;;9.93;3.13;;;;;;;;;;5117926;27;20098;-60
2023/07/22 09:02:42;;;;;;;9.20;3.13;;;;;;;;;;5134090;27;20507;-59
2023/07/22 09:05:09;;;;;;;6.18;3.15;;;;;;;;;;5135100;27;20020;-62
2023/07/22 09:07:34;;;;;;;6.25;3.30;;;;;;;;;;5135024;27;20020;-61
2023/07/22 09:10:00;;;;;;;8.55;3.38;;;;;;;;;;5133497;27;20023;-63
2023/07/22 09:12:25;;;;;;;6.70;3.20;;;;;;;;;;5132571;27;20072;-62
2023/07/22 09:14:50;;;;;;;6.88;2.95;;;;;;;;;;5134427;27;20023;-61
2023/07/22 09:17:16;;;;;;;6.75;3.10;;;;;;;;;;5135247;27;20064;-63
2023/07/22 09:19:41;;;;;;;7.90;3.00;;;;;;;;;;5134967;27;20099;-62
2023/07/22 09:22:07;;;;;;;4.80;2.30;;;;;;;;;;5134422;27;20068;-61
2023/07/22 09:24:32;;;;;;;8.43;2.83;;;;;;;;;;5134040;27;20027;-63
2023/07/22 09:26:58;;;;;;;7.20;2.23;;;;;;;;;;5134538;27;20019;-63
2023/07/22 09:29:36;;;;;;;5.15;2.70;;;;;;;;;;5134188;27;20432;-63
2023/07/22 09:32:03;;;;;;;5.35;2.53;;;;;;;;;;5134137;27;20023;-60
2023/07/22 09:34:28;;;;;;;5.75;2.65;;;;;;;;;;5133989;27;20019;-61
2023/07/22 09:36:54;;;;;;;5.10;2.60;;;;;;;;;;5134382;27;20068;-61
2023/07/22 09:39:20;;;;;;;5.18;2.35;;;;;;;;;;5134482;27;20029;-62
2023/07/22 09:41:45;;;;;;;4.93;2.58;;;;;;;;;;5136113;27;20031;-60
2023/07/22 09:44:12;;;;;;;4.40;2.33;;;;;;;;;;5136229;27;20123;-62
2023/07/22 09:46:37;;;;;;;4.88;2.30;;;;;;;;;;5135392;27;20027;-60
2023/07/22 09:49:06;;;;;;;5.47;2.50;;;;;;;;;;5137947;27;20034;-61
2023/07/22 09:51:35;;;;;;;5.78;2.50;;;;;;;;;;5137417;27;20129;-63
2023/07/22 09:54:01;;;;;;;5.65;2.40;;;;;;;;;;5139309;27;20015;-61
2023/07/22 09:56:26;;;;;;;5.53;2.17;;;;;;;;;;5134962;27;20064;-62
2023/07/22 09:58:51;;;;;;;5.10;2.10;;;;;;;;;;5134076;27;20023;-61
2023/07/22 10:01:19;;;;;;;5.57;2.40;;;;;;;;;;5133623;27;20415;-60
2023/07/22 10:03:45;;;;;;;7.18;2.40;;;;;;;;;;5133498;27;20865;-63
2023/07/22 10:06:10;;;;;;;;;;;;;;;;;;5134769;27;20023;-62
2023/07/22 10:08:36;;;;;;;4.93;2.03;;;;;;;;;;5133988;27;19937;-63
2023/07/22 10:11:01;;;;;;;;;;;;;;;;;;5134128;27;20443;-60
2023/07/22 10:13:26;;;;;;;8.63;3.37;;;;;;;;;;5132979;27;20001;-61
2023/07/22 10:15:52;;;;;;;6.40;3.00;;;;;;;;;;5133859;27;20114;-63
2023/07/22 10:18:19;;;;;;;4.75;1.90;;;;;;;;;;5127955;27;20391;-62
2023/07/22 10:20:45;;;;;;;5.05;2.00;;;;;;;;;;5112827;28;20703;-61
2023/07/22 10:23:13;;;;;;;5.03;2.30;;;;;;;;;;5112063;28;20023;-62
2023/07/22 10:25:39;;;;;;;5.38;1.90;;;;;;;;;;5112836;28;20428;-63
2023/07/22 10:28:05;;;;;;;5.95;2.22;;;;;;;;;;5112698;28;20080;-60
2023/07/22 10:30:30;;;;;;;4.43;2.00;;;;;;;;;;5112562;28;20023;-62
2023/07/22 10:32:56;;;;;;;4.57;2.07;;;;;;;;;;5111918;28;20024;-61
2023/07/22 10:35:30;;;;;;;4.97;2.23;;;;;;;;;;5112655;28;20035;-61
2023/07/22 10:37:55;;;;;;;4.95;2.17;;;;;;;;;;5112581;28;20031;-62
2023/07/22 10:40:28;;;;;;;4.90;2.20;;;;;;;;;;5112625;28;20072;-62
2023/07/22 10:42:53;;;;;;;7.15;2.38;;;;;;;;;;5111851;28;20036;-63
2023/07/22 10:45:27;;;;;;;6.32;2.30;;;;;;;;;;5112788;28;20111;-63
2023/07/22 10:48:06;;;;;;;4.40;2.10;;;;;;;;;;5112545;28;20019;-61
2023/07/22 10:50:41;;;;;;;4.82;2.03;;;;;;;;;;5112392;28;20032;-62
2023/07/22 10:53:09;;;;;;;3.90;2.10;;;;;;;;;;5111301;28;20499;-61
2023/07/22 10:55:54;;;;;;;5.05;2.17;;;;;;;;;;5112300;28;20386;-63
2023/07/22 10:58:20;;;;;;;5.20;2.22;;;;;;;;;;5112011;28;20020;-62
2023/07/22 11:00:45;;;;;;;4.85;2.10;;;;;;;;;;5125831;27;20367;-61
2023/07/22 11:03:15;;;;;;;4.70;1.90;;;;;;;;;;5131256;27;20015;-62
2023/07/22 11:05:47;;;;;;;6.65;2.10;;;;;;;;;;5132385;27;20019;-61
2023/07/22 11:08:12;;;;;;;;;;;;;;;;;;5133079;27;20027;-61
2023/07/22 11:10:37;;;;;;;3.55;1.77;;;;;;;;;;5132677;27;20019;-62
2023/07/22 11:13:03;;;;;;;6.30;2.15;;;;;;;;;;5131931;27;20027;-61
2023/07/22 11:15:29;;;;;;;4.22;2.10;;;;;;;;;;5132377;27;20026;-61
2023/07/22 11:17:54;;;;;;;5.80;2.25;;;;;;;;;;5132699;27;20510;-62
2023/07/22 11:20:21;;;;;;;5.17;2.10;;;;;;;;;;5131942;27;20096;-62
2023/07/22 11:22:47;;;;;;;6.35;2.30;;;;;;;;;;5125534;27;20019;-60
2023/07/22 11:25:18;;;;;;;4.90;2.10;;;;;;;;;;5111938;28;20025;-60
2023/07/22 11:27:44;;;;;;;6.75;2.30;;;;;;;;;;5111649;28;20083;-61
2023/07/22 11:30:10;;;;;;;5.10;2.13;;;;;;;;;;5111650;28;20550;-60
2023/07/22 11:32:41;;;;;;;5.75;2.40;;;;;;;;;;5111261;28;20068;-60
2023/07/22 11:35:08;;;;;;;4.78;2.40;;;;;;;;;;5111739;28;20046;-62
2023/07/22 11:37:33;;;;;;;5.10;2.20;;;;;;;;;;5111703;28;20019;-62
2023/07/22 11:40:01;;;;;;;4.60;2.20;;;;;;;;;;5112324;28;20035;-60
2023/07/22 11:42:27;;;;;;;4.50;2.08;;;;;;;;;;5111380;28;20032;-61
2023/07/22 11:44:52;;;;;;;4.55;2.38;;;;;;;;;;5111074;28;20026;-60
2023/07/22 11:47:18;;;;;;;5.60;2.50;;;;;;;;;;5111740;28;20467;-62
2023/07/22 11:49:46;;;;;;;4.83;2.10;;;;;;;;;;5111999;28;20028;-62
2023/07/22 11:52:15;;;;;;;5.47;2.30;;;;;;;;;;5112258;28;20020;-62
2023/07/22 11:54:41;;;;;;;4.95;2.47;;;;;;;;;;5111061;28;20050;-61
2023/07/22 11:57:22;;;;;;;4.90;2.50;;;;;;;;;;5111299;28;20055;-62
2023/07/22 11:59:52;;;;;;;5.65;2.38;;;;;;;;;;5121590;28;20018;-61
2023/07/22 12:02:21;;;;;;;4.28;2.20;;;;;;;;;;5131380;27;20018;-60
2023/07/22 12:04:53;;;;;;;6.03;2.55;;;;;;;;;;5130957;27;20030;-63
2023/07/22 12:07:28;;;;;;;5.10;2.15;;;;;;;;;;5131614;27;20020;-61
2023/07/22 12:09:55;;;;;;;4.32;2.20;;;;;;;;;;5131596;27;20110;-62
2023/07/22 12:12:20;;;;;;;6.60;2.13;;;;;;;;;;5131816;27;20019;-61
2023/07/22 12:14:45;;;;;;;4.90;2.20;;;;;;;;;;5132512;27;20542;-61
2023/07/22 12:17:11;;;;;;;4.05;2.00;;;;;;;;;;5136127;27;20034;-61
2023/07/22 12:19:36;;;;;;;5.00;2.47;;;;;;;;;;5138106;27;20060;-61
2023/07/22 12:22:02;;;;;;;4.23;2.03;;;;;;;;;;5138564;27;20481;-60
2023/07/22 12:24:27;;;;;;;5.30;2.47;;;;;;;;;;5154412;27;20022;-62
2023/07/22 12:26:52;;;;;;;;;;;;;;;;;;5157261;27;20089;-62
2023/07/22 12:29:17;;;;;;;5.07;2.25;;;;;;;;;;5131113;27;19912;-61
2023/07/22 12:31:42;;;;;;;;;;;;;;;;;;5115924;28;20053;-62
2023/07/22 12:34:07;;;;;;;4.05;2.22;;;;;;;;;;5114376;28;19907;-62
2023/07/22 12:36:33;;;;;;;4.97;2.35;;;;;;;;;;5115173;28;20028;-61
2023/07/22 12:38:58;;;;;;;5.20;2.00;;;;;;;;;;5114954;28;20447;-61
2023/07/22 12:41:23;;;;;;;4.22;1.95;;;;;;;;;;5113621;28;20023;-61
2023/07/22 12:43:49;;;;;;;4.37;2.03;;;;;;;;;;5114249;28;20016;-62
2023/07/22 12:46:14;;;;;;;4.85;2.10;;;;;;;;;;5115065;28;20019;-62
2023/07/22 12:48:39;;;;;;;4.53;2.13;;;;;;;;;;5114845;28;20032;-62
2023/07/22 12:51:04;;;;;;;4.17;1.90;;;;;;;;;;5114824;28;20099;-62
2023/07/22 12:53:29;;;;;;;5.33;2.63;;;;;;;;;;5113980;28;20472;-61
2023/07/22 12:55:54;;;;;;;4.50;2.00;;;;;;;;;;5114776;28;20120;-63
2023/07/22 12:58:20;;;;;;;;;;;;;;;;;;5118096;27;20019;-61
2023/07/22 13:00:45;;;;;;;3.92;1.90;;;;;;;;;;5135088;27;19907;-61
2023/07/22 13:03:11;;;;;;;4.30;2.03;;;;;;;;;;5134371;27;20027;-63
2023/07/22 13:05:36;;;;;;;4.83;2.20;;;;;;;;;;5135075;27;20019;-61
2023/07/22 13:08:01;;;;;;;4.72;2.10;;;;;;;;;;5134582;27;20390;-62
2023/07/22 13:10:26;;;;;;;;;;;;;;;;;;5134187;27;20026;-61
2023/07/22 13:12:51;;;;;;;3.97;2.10;;;;;;;;;;5134387;27;19993;-62
2023/07/22 13:15:17;;;;;;;4.63;2.20;;;;;;;;;;5134670;27;20428;-60
2023/07/22 13:17:42;;;;;;;;;;;;;;;;;;5135122;27;20076;-63
2023/07/22 13:20:08;;;;;;;4.30;2.07;;;;;;;;;;5134769;27;19950;-63
2023/07/22 13:22:33;;;;;;;4.40;2.10;;;;;;;;;;5134565;27;20099;-62
2023/07/22 13:24:59;;;;;;;5.13;2.30;;;;;;;;;;5134153;27;20023;-60
2023/07/22 13:27:24;;;;;;;;;;;;;;;;;;5134702;27;20102;-62
2023/07/22 13:29:49;;;;;;;5.03;2.28;;;;;;;;;;5134847;27;19918;-61
2023/07/22 13:32:14;;;;;;;4.67;2.50;;;;;;;;;;5134567;27;20498;-60
2023/07/22 13:34:39;;;;;;;4.53;2.37;;;;;;;;;;5127324;27;20019;-61
2023/07/22 13:37:05;;;;;;;;;;;;;;;;;;5114270;28;20107;-61
2023/07/22 13:39:30;;;;;;;5.28;2.30;;;;;;;;;;5113798;28;19904;-61
2023/07/22 13:41:56;;;;;;;3.92;1.92;;;;;;;;;;5113654;27;20588;-61
2023/07/22 13:44:21;;;;;;;;;;;;;;;;;;5113717;28;20030;-62
2023/07/22 13:46:46;;;;;;;5.18;2.10;;;;;;;;;;5113561;28;19903;-62
2023/07/22 13:49:11;;;;;;;;;;;;;;;;;;5114035;28;20027;-61
2023/07/22 13:51:36;;;;;;;4.53;2.40;;;;;;;;;;5113497;28;19915;-61
2023/07/22 13:54:02;;;;;;;5.03;2.08;;;;;;;;;;5112217;28;20464;-62
2023/07/22 13:56:27;;;;;;;;;;;;;;;;;;5112569;28;20024;-62
2023/07/22 13:58:54;;;;;;;4.60;2.30;;;;;;;;;;5129695;27;20342;-62
2023/07/22 14:01:19;;;;;;;4.60;2.08;;;;;;;;;;5133871;27;20483;-62
2023/07/22 14:03:44;;;;;;;4.70;2.30;;;;;;;;;;5133202;27;20033;-62
2023/07/22 14:06:09;;;;;;;;;;;;;;;;;;5134316;27;20023;-63
2023/07/22 14:08:35;;;;;;;5.15;2.17;;;;;;;;;;5133726;27;20002;-62
2023/07/22 14:11:00;;;;;;;5.30;2.30;;;;;;;;;;5133918;27;20015;-61
2023/07/22 14:13:25;;;;;;;5.27;2.20;;;;;;;;;;5133056;27;20027;-61
2023/07/22 14:15:50;;;;;;;;;;;;;;;;;;5134153;27;20466;-61
2023/07/22 14:18:17;;;;;;;5.05;2.42;;;;;;;;;;5133781;27;19953;-60
2023/07/22 14:20:45;;;;;;;5.15;2.45;;;;;;;;;;5133317;27;20012;-60
2023/07/22 14:23:11;;;;;;;4.50;2.20;;;;;;;;;;5132944;27;20019;-63
2023/07/22 14:25:36;;;;;;;4.97;2.40;;;;;;;;;;5133131;27;20011;-63
2023/07/22 14:28:01;;;;;;;4.70;2.50;;;;;;;;;;5133254;27;20022;-60
2023/07/22 14:30:26;;;;;;;4.47;2.30;;;;;;;;;;5133314;27;20015;-61
2023/07/22 14:32:52;;;;;;;4.23;2.27;;;;;;;;;;5132681;27;20015;-61
2023/07/22 14:35:17;;;;;;;4.45;2.15;;;;;;;;;;5133163;27;20026;-61
2023/07/22 14:37:42;;;;;;;;;;;;;;;;;;5133519;27;20103;-61
2023/07/22 14:40:08;;;;;;;5.13;2.33;;;;;;;;;;5131846;27;19908;-60